sensor_id;sensor_type;location;lat;lon;timestamp;temperature;humidity
21403;DHT22;10862;51.886;17.078;2023-03-03T00:01:34;0.10;99.90
21403;DHT22;10862;51.886;17.078;2023-03-03T00:04:00;0.00;99.90
21403;DHT22;10862;51.886;17.078;2023-03-03T00:06:26;0.00;99.90
21403;DHT22;10862;51.886;17.078;2023-03-03T00:08:52;0.00;99.90
21403;DHT22;10862;51.886;17.078;2023-03-03T00:11:18;0.10;99.90
21403;DHT22;10862;51.886;17.078;2023-03-03T00:13:52;0.20;99.90
21403;DHT22;10862;51.886;17.078;2023-03-03T00:16:38;0.00;99.90
21403;DHT22;10862;51.886;17.078;2023-03-03T00:19:17;0.10;99.90
21403;DHT22;10862;51.886;17.078;2023-03-03T00:21:48;0.20;99.90
21403;DHT22;10862;51.886;17.078;2023-03-03T00:24:23;0.20;99.90
21403;DHT22;10862;51.886;17.078;2023-03-03T00:26:55;0.10;99.90
21403;DHT22;10862;51.886;17.078;2023-03-03T00:29:33;0.10;99.90
21403;DHT22;10862;51.886;17.078;2023-03-03T00:34:37;0.00;99.90
21403;DHT22;10862;51.886;17.078;2023-03-03T00:37:10;0.00;99.90
21403;DHT22;10862;51.886;17.078;2023-03-03T00:39:44;0.00;99.90
21403;DHT22;10862;51.886;17.078;2023-03-03T00:42:14;0.10;99.90
21403;DHT22;10862;51.886;17.078;2023-03-03T00:44:46;0.00;99.90
21403;DHT22;10862;51.886;17.078;2023-03-03T00:47:36;0.00;99.90
21403;DHT22;10862;51.886;17.078;2023-03-03T00:52:34;0.00;99.90
21403;DHT22;10862;51.886;17.078;2023-03-03T00:55:00;-0.10;99.90
21403;DHT22;10862;51.886;17.078;2023-03-03T00:57:27;-0.20;99.90
21403;DHT22;10862;51.886;17.078;2023-03-03T00:59:52;-0.10;99.90
21403;DHT22;10862;51.886;17.078;2023-03-03T01:02:18;-0.20;99.90
21403;DHT22;10862;51.886;17.078;2023-03-03T01:04:49;-0.10;99.90
21403;DHT22;10862;51.886;17.078;2023-03-03T01:07:15;-0.10;99.90
21403;DHT22;10862;51.886;17.078;2023-03-03T01:09:41;-0.10;99.90
21403;DHT22;10862;51.886;17.078;2023-03-03T01:12:06;-0.20;99.90
21403;DHT22;10862;51.886;17.078;2023-03-03T01:14:32;-0.20;99.90
21403;DHT22;10862;51.886;17.078;2023-03-03T01:16:58;-0.10;99.90
21403;DHT22;10862;51.886;17.078;2023-03-03T01:19:24;-0.20;99.90
21403;DHT22;10862;51.886;17.078;2023-03-03T01:21:50;-0.20;99.90
21403;DHT22;10862;51.886;17.078;2023-03-03T01:24:16;-0.40;99.90
21403;DHT22;10862;51.886;17.078;2023-03-03T01:26:41;-0.40;99.90
21403;DHT22;10862;51.886;17.078;2023-03-03T01:29:07;-0.50;99.90
21403;DHT22;10862;51.886;17.078;2023-03-03T01:31:33;-0.40;99.90
21403;DHT22;10862;51.886;17.078;2023-03-03T01:33:59;-0.50;99.90
21403;DHT22;10862;51.886;17.078;2023-03-03T01:36:26;-0.60;99.90
21403;DHT22;10862;51.886;17.078;2023-03-03T01:38:53;-0.60;99.90
21403;DHT22;10862;51.886;17.078;2023-03-03T01:41:18;-0.60;99.90
21403;DHT22;10862;51.886;17.078;2023-03-03T01:43:47;-0.80;99.90
21403;DHT22;10862;51.886;17.078;2023-03-03T01:48:45;-0.90;99.90
21403;DHT22;10862;51.886;17.078;2023-03-03T01:51:27;-0.90;99.90
21403;DHT22;10862;51.886;17.078;2023-03-03T01:54:06;-1.00;99.90
21403;DHT22;10862;51.886;17.078;2023-03-03T01:56:34;-1.00;99.90
21403;DHT22;10862;51.886;17.078;2023-03-03T01:59:04;-1.00;99.90
21403;DHT22;10862;51.886;17.078;2023-03-03T02:01:32;-1.10;99.90
21403;DHT22;10862;51.886;17.078;2023-03-03T02:03:59;-1.20;99.90
21403;DHT22;10862;51.886;17.078;2023-03-03T02:06:33;-1.20;99.90
21403;DHT22;10862;51.886;17.078;2023-03-03T02:11:36;-1.20;99.90
21403;DHT22;10862;51.886;17.078;2023-03-03T02:14:03;-1.30;99.90
21403;DHT22;10862;51.886;17.078;2023-03-03T02:16:29;-1.30;99.90
21403;DHT22;10862;51.886;17.078;2023-03-03T02:18:55;-1.30;99.90
21403;DHT22;10862;51.886;17.078;2023-03-03T02:21:23;-1.20;99.90
21403;DHT22;10862;51.886;17.078;2023-03-03T02:24:17;-1.20;99.90
21403;DHT22;10862;51.886;17.078;2023-03-03T02:26:47;-1.20;99.90
21403;DHT22;10862;51.886;17.078;2023-03-03T02:29:13;-1.30;99.90
21403;DHT22;10862;51.886;17.078;2023-03-03T02:31:39;-1.40;99.90
21403;DHT22;10862;51.886;17.078;2023-03-03T02:34:05;-1.40;99.90
21403;DHT22;10862;51.886;17.078;2023-03-03T02:36:34;-1.30;99.90
21403;DHT22;10862;51.886;17.078;2023-03-03T02:39:15;-1.30;99.90
21403;DHT22;10862;51.886;17.078;2023-03-03T02:41:47;-1.30;99.90
21403;DHT22;10862;51.886;17.078;2023-03-03T02:44:20;-1.20;99.90
21403;DHT22;10862;51.886;17.078;2023-03-03T02:46:48;-1.30;99.90
21403;DHT22;10862;51.886;17.078;2023-03-03T02:49:17;-1.20;99.90
21403;DHT22;10862;51.886;17.078;2023-03-03T02:51:44;-1.10;99.90
21403;DHT22;10862;51.886;17.078;2023-03-03T02:54:11;-1.10;99.90
21403;DHT22;10862;51.886;17.078;2023-03-03T02:56:37;-1.00;99.90
21403;DHT22;10862;51.886;17.078;2023-03-03T02:59:04;-1.10;99.90
21403;DHT22;10862;51.886;17.078;2023-03-03T03:01:30;-1.00;99.90
21403;DHT22;10862;51.886;17.078;2023-03-03T03:04:04;-1.10;99.90
21403;DHT22;10862;51.886;17.078;2023-03-03T03:06:30;-1.20;99.90
21403;DHT22;10862;51.886;17.078;2023-03-03T03:08:55;-1.20;99.90
21403;DHT22;10862;51.886;17.078;2023-03-03T03:11:21;-1.30;99.90
21403;DHT22;10862;51.886;17.078;2023-03-03T03:13:47;-1.20;99.90
21403;DHT22;10862;51.886;17.078;2023-03-03T03:16:13;-1.30;99.90
21403;DHT22;10862;51.886;17.078;2023-03-03T03:18:38;-1.30;99.90
21403;DHT22;10862;51.886;17.078;2023-03-03T03:21:09;-1.10;99.90
21403;DHT22;10862;51.886;17.078;2023-03-03T03:23:35;-1.20;99.90
21403;DHT22;10862;51.886;17.078;2023-03-03T03:26:01;-1.10;99.90
21403;DHT22;10862;51.886;17.078;2023-03-03T03:28:26;-1.10;99.90
21403;DHT22;10862;51.886;17.078;2023-03-03T03:30:52;-1.10;99.90
21403;DHT22;10862;51.886;17.078;2023-03-03T03:33:18;-1.10;99.90
21403;DHT22;10862;51.886;17.078;2023-03-03T03:35:44;-1.10;99.90
21403;DHT22;10862;51.886;17.078;2023-03-03T03:38:12;-1.20;99.90
21403;DHT22;10862;51.886;17.078;2023-03-03T03:40:38;-1.30;99.90
21403;DHT22;10862;51.886;17.078;2023-03-03T03:43:04;-1.20;99.90
21403;DHT22;10862;51.886;17.078;2023-03-03T03:45:30;-1.30;99.90
21403;DHT22;10862;51.886;17.078;2023-03-03T03:47:56;-1.10;99.90
21403;DHT22;10862;51.886;17.078;2023-03-03T03:50:22;-1.20;99.90
21403;DHT22;10862;51.886;17.078;2023-03-03T03:52:47;-1.20;99.90
21403;DHT22;10862;51.886;17.078;2023-03-03T03:55:13;-1.30;99.90
21403;DHT22;10862;51.886;17.078;2023-03-03T03:57:40;-1.30;99.90
21403;DHT22;10862;51.886;17.078;2023-03-03T04:00:07;-1.20;99.90
21403;DHT22;10862;51.886;17.078;2023-03-03T04:02:33;-1.20;99.90
21403;DHT22;10862;51.886;17.078;2023-03-03T04:04:59;-1.30;99.90
21403;DHT22;10862;51.886;17.078;2023-03-03T04:07:25;-1.20;99.90
21403;DHT22;10862;51.886;17.078;2023-03-03T04:09:51;-1.20;99.90
21403;DHT22;10862;51.886;17.078;2023-03-03T04:12:16;-1.10;99.90
21403;DHT22;10862;51.886;17.078;2023-03-03T04:14:42;-1.10;99.90
21403;DHT22;10862;51.886;17.078;2023-03-03T04:17:15;-1.10;99.90
21403;DHT22;10862;51.886;17.078;2023-03-03T04:19:41;-1.00;99.90
21403;DHT22;10862;51.886;17.078;2023-03-03T04:22:06;-1.00;99.90
21403;DHT22;10862;51.886;17.078;2023-03-03T04:24:32;-1.00;99.90
21403;DHT22;10862;51.886;17.078;2023-03-03T04:26:58;-1.00;99.90
21403;DHT22;10862;51.886;17.078;2023-03-03T04:29:24;-1.00;99.90
21403;DHT22;10862;51.886;17.078;2023-03-03T04:31:49;-1.00;99.90
21403;DHT22;10862;51.886;17.078;2023-03-03T04:34:15;-1.00;99.90
21403;DHT22;10862;51.886;17.078;2023-03-03T04:36:41;-0.90;99.90
21403;DHT22;10862;51.886;17.078;2023-03-03T04:39:06;-1.00;99.90
21403;DHT22;10862;51.886;17.078;2023-03-03T04:41:32;-0.90;99.90
21403;DHT22;10862;51.886;17.078;2023-03-03T04:43:58;-0.90;99.90
21403;DHT22;10862;51.886;17.078;2023-03-03T04:46:23;-0.90;99.90
21403;DHT22;10862;51.886;17.078;2023-03-03T04:48:49;-1.00;99.90
21403;DHT22;10862;51.886;17.078;2023-03-03T04:51:15;-0.90;99.90
21403;DHT22;10862;51.886;17.078;2023-03-03T04:53:41;-0.90;99.90
21403;DHT22;10862;51.886;17.078;2023-03-03T04:56:07;-0.90;99.90
21403;DHT22;10862;51.886;17.078;2023-03-03T04:58:32;-0.90;99.90
21403;DHT22;10862;51.886;17.078;2023-03-03T05:00:58;-0.80;99.90
21403;DHT22;10862;51.886;17.078;2023-03-03T05:03:25;-0.90;99.90
21403;DHT22;10862;51.886;17.078;2023-03-03T05:05:51;-0.90;99.90
21403;DHT22;10862;51.886;17.078;2023-03-03T05:08:17;-0.90;99.90
21403;DHT22;10862;51.886;17.078;2023-03-03T05:10:43;-0.90;99.90
21403;DHT22;10862;51.886;17.078;2023-03-03T05:13:09;-0.90;99.90
21403;DHT22;10862;51.886;17.078;2023-03-03T05:15:35;-1.00;99.90
21403;DHT22;10862;51.886;17.078;2023-03-03T05:18:01;-1.00;99.90
21403;DHT22;10862;51.886;17.078;2023-03-03T05:20:27;-1.00;99.90
21403;DHT22;10862;51.886;17.078;2023-03-03T05:22:52;-0.90;99.90
21403;DHT22;10862;51.886;17.078;2023-03-03T05:25:20;-1.00;99.90
21403;DHT22;10862;51.886;17.078;2023-03-03T05:27:45;-1.00;99.90
21403;DHT22;10862;51.886;17.078;2023-03-03T05:30:11;-1.00;99.90
21403;DHT22;10862;51.886;17.078;2023-03-03T05:32:37;-1.10;99.90
21403;DHT22;10862;51.886;17.078;2023-03-03T05:35:04;-0.90;99.90
21403;DHT22;10862;51.886;17.078;2023-03-03T05:37:30;-0.90;99.90
21403;DHT22;10862;51.886;17.078;2023-03-03T05:39:56;-0.90;99.90
21403;DHT22;10862;51.886;17.078;2023-03-03T05:42:22;-0.90;99.90
21403;DHT22;10862;51.886;17.078;2023-03-03T05:44:47;-0.90;99.90
21403;DHT22;10862;51.886;17.078;2023-03-03T05:47:13;-0.90;99.90
21403;DHT22;10862;51.886;17.078;2023-03-03T05:49:39;-0.90;99.90
21403;DHT22;10862;51.886;17.078;2023-03-03T05:52:05;-1.00;99.90
21403;DHT22;10862;51.886;17.078;2023-03-03T05:54:31;-1.00;99.90
21403;DHT22;10862;51.886;17.078;2023-03-03T05:56:57;-1.00;99.90
21403;DHT22;10862;51.886;17.078;2023-03-03T05:59:23;-1.00;99.90
21403;DHT22;10862;51.886;17.078;2023-03-03T06:01:49;-1.00;99.90
21403;DHT22;10862;51.886;17.078;2023-03-03T06:04:15;-1.00;99.90
21403;DHT22;10862;51.886;17.078;2023-03-03T06:06:41;-1.00;99.90
21403;DHT22;10862;51.886;17.078;2023-03-03T06:09:07;-1.00;99.90
21403;DHT22;10862;51.886;17.078;2023-03-03T06:11:33;-1.00;99.90
21403;DHT22;10862;51.886;17.078;2023-03-03T06:13:58;-1.00;99.90
21403;DHT22;10862;51.886;17.078;2023-03-03T06:16:24;-1.00;99.90
21403;DHT22;10862;51.886;17.078;2023-03-03T06:18:50;-1.10;99.90
21403;DHT22;10862;51.886;17.078;2023-03-03T06:21:16;-1.10;99.90
21403;DHT22;10862;51.886;17.078;2023-03-03T06:23:42;-1.20;99.90
21403;DHT22;10862;51.886;17.078;2023-03-03T06:26:07;-1.20;99.90
21403;DHT22;10862;51.886;17.078;2023-03-03T06:28:33;-1.20;99.90
21403;DHT22;10862;51.886;17.078;2023-03-03T06:30:59;-1.20;99.90
21403;DHT22;10862;51.886;17.078;2023-03-03T06:33:25;-1.10;99.90
21403;DHT22;10862;51.886;17.078;2023-03-03T06:35:52;-1.20;99.90
21403;DHT22;10862;51.886;17.078;2023-03-03T06:38:18;-1.10;99.90
21403;DHT22;10862;51.886;17.078;2023-03-03T06:40:45;-1.10;99.90
21403;DHT22;10862;51.886;17.078;2023-03-03T06:43:11;-1.00;99.90
21403;DHT22;10862;51.886;17.078;2023-03-03T06:45:36;-1.00;99.90
21403;DHT22;10862;51.886;17.078;2023-03-03T06:48:02;-1.00;99.90
21403;DHT22;10862;51.886;17.078;2023-03-03T06:50:28;-1.00;99.90
21403;DHT22;10862;51.886;17.078;2023-03-03T06:53:10;-1.00;99.90
21403;DHT22;10862;51.886;17.078;2023-03-03T06:55:36;-1.10;99.90
21403;DHT22;10862;51.886;17.078;2023-03-03T06:58:09;-1.00;99.90
21403;DHT22;10862;51.886;17.078;2023-03-03T07:00:36;-1.00;99.90
21403;DHT22;10862;51.886;17.078;2023-03-03T07:03:11;-1.00;99.90
21403;DHT22;10862;51.886;17.078;2023-03-03T07:05:37;-1.00;99.90
21403;DHT22;10862;51.886;17.078;2023-03-03T07:08:09;-0.90;99.90
21403;DHT22;10862;51.886;17.078;2023-03-03T07:10:38;-0.80;99.90
21403;DHT22;10862;51.886;17.078;2023-03-03T07:13:22;-0.90;99.90
21403;DHT22;10862;51.886;17.078;2023-03-03T07:15:49;-0.90;99.90
21403;DHT22;10862;51.886;17.078;2023-03-03T07:21:32;-1.00;99.90
21403;DHT22;10862;51.886;17.078;2023-03-03T07:24:00;-0.90;99.90
21403;DHT22;10862;51.886;17.078;2023-03-03T07:26:30;-0.90;99.90
21403;DHT22;10862;51.886;17.078;2023-03-03T07:31:45;-0.90;99.90
21403;DHT22;10862;51.886;17.078;2023-03-03T07:34:23;-0.90;99.90
21403;DHT22;10862;51.886;17.078;2023-03-03T07:36:53;-0.90;99.90
21403;DHT22;10862;51.886;17.078;2023-03-03T07:41:51;-0.90;99.90
21403;DHT22;10862;51.886;17.078;2023-03-03T07:44:21;-0.90;99.90
21403;DHT22;10862;51.886;17.078;2023-03-03T07:46:50;-0.70;99.90
21403;DHT22;10862;51.886;17.078;2023-03-03T07:49:34;-0.80;99.90
21403;DHT22;10862;51.886;17.078;2023-03-03T07:52:02;-0.80;99.90
21403;DHT22;10862;51.886;17.078;2023-03-03T07:54:43;-0.80;99.90
21403;DHT22;10862;51.886;17.078;2023-03-03T07:59:47;-0.70;99.90
21403;DHT22;10862;51.886;17.078;2023-03-03T08:02:37;-0.70;99.90
21403;DHT22;10862;51.886;17.078;2023-03-03T08:08:30;-0.70;99.90
21403;DHT22;10862;51.886;17.078;2023-03-03T08:10:59;-0.70;99.90
21403;DHT22;10862;51.886;17.078;2023-03-03T08:13:36;-0.70;99.90
21403;DHT22;10862;51.886;17.078;2023-03-03T08:18:46;-0.60;99.90
21403;DHT22;10862;51.886;17.078;2023-03-03T08:21:20;-0.70;99.90
21403;DHT22;10862;51.886;17.078;2023-03-03T08:23:46;-0.60;99.90
21403;DHT22;10862;51.886;17.078;2023-03-03T08:26:18;-0.80;99.90
21403;DHT22;10862;51.886;17.078;2023-03-03T08:28:45;-0.80;99.90
21403;DHT22;10862;51.886;17.078;2023-03-03T08:31:10;-0.80;99.90
21403;DHT22;10862;51.886;17.078;2023-03-03T08:33:37;-0.80;99.90
21403;DHT22;10862;51.886;17.078;2023-03-03T08:36:04;-0.70;99.90
21403;DHT22;10862;51.886;17.078;2023-03-03T08:38:30;-0.60;99.90
21403;DHT22;10862;51.886;17.078;2023-03-03T08:40:55;-0.50;99.90
21403;DHT22;10862;51.886;17.078;2023-03-03T08:43:21;-0.60;99.90
21403;DHT22;10862;51.886;17.078;2023-03-03T08:45:51;-0.60;99.90
21403;DHT22;10862;51.886;17.078;2023-03-03T08:48:18;-0.80;99.90
21403;DHT22;10862;51.886;17.078;2023-03-03T08:50:44;-0.70;99.90
21403;DHT22;10862;51.886;17.078;2023-03-03T08:53:10;-0.60;99.90
21403;DHT22;10862;51.886;17.078;2023-03-03T08:55:37;-0.60;99.90
21403;DHT22;10862;51.886;17.078;2023-03-03T08:58:03;-0.50;99.90
21403;DHT22;10862;51.886;17.078;2023-03-03T09:00:28;-0.50;99.90
21403;DHT22;10862;51.886;17.078;2023-03-03T09:02:54;-0.50;99.90
21403;DHT22;10862;51.886;17.078;2023-03-03T09:05:21;-0.70;99.90
21403;DHT22;10862;51.886;17.078;2023-03-03T09:07:47;-0.50;99.90
21403;DHT22;10862;51.886;17.078;2023-03-03T09:10:16;-0.60;99.90
21403;DHT22;10862;51.886;17.078;2023-03-03T09:12:44;-0.70;99.90
21403;DHT22;10862;51.886;17.078;2023-03-03T09:15:21;-0.60;99.90
21403;DHT22;10862;51.886;17.078;2023-03-03T09:17:48;-0.70;99.90
21403;DHT22;10862;51.886;17.078;2023-03-03T09:22:47;-0.70;99.90
21403;DHT22;10862;51.886;17.078;2023-03-03T09:25:33;-0.60;99.90
21403;DHT22;10862;51.886;17.078;2023-03-03T09:28:02;-0.60;99.90
21403;DHT22;10862;51.886;17.078;2023-03-03T09:30:41;-0.80;99.90
21403;DHT22;10862;51.886;17.078;2023-03-03T09:35:45;-0.70;99.90
21403;DHT22;10862;51.886;17.078;2023-03-03T09:38:29;-0.60;99.90
21403;DHT22;10862;51.886;17.078;2023-03-03T09:47:33;-0.50;99.90
21403;DHT22;10862;51.886;17.078;2023-03-03T09:52:34;-0.60;99.90
21403;DHT22;10862;51.886;17.078;2023-03-03T10:03:59;-0.60;99.90
21403;DHT22;10862;51.886;17.078;2023-03-03T10:17:52;-0.50;99.90
21403;DHT22;10862;51.886;17.078;2023-03-03T10:26:12;-0.40;99.90
21403;DHT22;10862;51.886;17.078;2023-03-03T10:29:24;-0.50;99.90
21403;DHT22;10862;51.886;17.078;2023-03-03T10:42:29;-0.40;99.90
21403;DHT22;10862;51.886;17.078;2023-03-03T10:48:04;-0.50;99.90
21403;DHT22;10862;51.886;17.078;2023-03-03T10:50:43;-0.60;99.90
21403;DHT22;10862;51.886;17.078;2023-03-03T10:53:36;-0.40;99.90
21403;DHT22;10862;51.886;17.078;2023-03-03T10:59:30;-0.20;99.90
21403;DHT22;10862;51.886;17.078;2023-03-03T11:02:00;-0.40;99.90
21403;DHT22;10862;51.886;17.078;2023-03-03T11:20:30;-0.30;99.90
21403;DHT22;10862;51.886;17.078;2023-03-03T11:25:45;-0.30;99.90
21403;DHT22;10862;51.886;17.078;2023-03-03T11:31:35;-0.10;99.90
21403;DHT22;10862;51.886;17.078;2023-03-03T11:34:21;-0.30;99.90
21403;DHT22;10862;51.886;17.078;2023-03-03T11:37:28;-0.10;99.90
21403;DHT22;10862;51.886;17.078;2023-03-03T11:39:54;-0.20;99.90
21403;DHT22;10862;51.886;17.078;2023-03-03T11:45:13;-0.20;99.90
21403;DHT22;10862;51.886;17.078;2023-03-03T11:47:54;-0.10;99.90
21403;DHT22;10862;51.886;17.078;2023-03-03T11:50:22;0.00;99.90
21403;DHT22;10862;51.886;17.078;2023-03-03T11:58:13;-0.20;99.90
21403;DHT22;10862;51.886;17.078;2023-03-03T12:06:22;-0.10;99.90
21403;DHT22;10862;51.886;17.078;2023-03-03T12:09:08;0.10;99.90
21403;DHT22;10862;51.886;17.078;2023-03-03T12:11:47;0.10;99.90
21403;DHT22;10862;51.886;17.078;2023-03-03T12:34:54;0.20;99.90
21403;DHT22;10862;51.886;17.078;2023-03-03T12:48:08;0.50;99.90
21403;DHT22;10862;51.886;17.078;2023-03-03T12:51:05;0.50;99.90
21403;DHT22;10862;51.886;17.078;2023-03-03T12:53:51;0.50;99.90
21403;DHT22;10862;51.886;17.078;2023-03-03T12:56:30;0.40;99.90
21403;DHT22;10862;51.886;17.078;2023-03-03T12:59:03;0.40;99.90
21403;DHT22;10862;51.886;17.078;2023-03-03T13:01:42;0.40;99.90
21403;DHT22;10862;51.886;17.078;2023-03-03T13:07:12;0.40;99.90
21403;DHT22;10862;51.886;17.078;2023-03-03T13:15:01;0.40;99.90
21403;DHT22;10862;51.886;17.078;2023-03-03T13:17:37;0.50;99.90
21403;DHT22;10862;51.886;17.078;2023-03-03T13:20:16;0.50;99.90
21403;DHT22;10862;51.886;17.078;2023-03-03T13:22:54;0.50;99.90
21403;DHT22;10862;51.886;17.078;2023-03-03T13:25:49;0.50;99.90
21403;DHT22;10862;51.886;17.078;2023-03-03T13:28:29;0.50;99.90
21403;DHT22;10862;51.886;17.078;2023-03-03T13:31:18;0.30;99.90
21403;DHT22;10862;51.886;17.078;2023-03-03T13:33:54;0.50;99.90
21403;DHT22;10862;51.886;17.078;2023-03-03T13:36:46;0.60;99.90
21403;DHT22;10862;51.886;17.078;2023-03-03T13:48:02;0.70;99.90
21403;DHT22;10862;51.886;17.078;2023-03-03T13:50:39;0.60;99.90
21403;DHT22;10862;51.886;17.078;2023-03-03T13:58:41;0.70;99.90
21403;DHT22;10862;51.886;17.078;2023-03-03T14:01:51;0.60;99.90
21403;DHT22;10862;51.886;17.078;2023-03-03T14:06:50;0.70;99.90
21403;DHT22;10862;51.886;17.078;2023-03-03T14:12:37;0.70;99.90
21403;DHT22;10862;51.886;17.078;2023-03-03T14:15:37;0.70;99.90
21403;DHT22;10862;51.886;17.078;2023-03-03T14:20:52;0.80;99.90
21403;DHT22;10862;51.886;17.078;2023-03-03T14:28:41;0.80;99.90
21403;DHT22;10862;51.886;17.078;2023-03-03T14:34:45;0.80;99.90
21403;DHT22;10862;51.886;17.078;2023-03-03T14:36:41;0.80;99.90
21403;DHT22;10862;51.886;17.078;2023-03-03T14:39:32;0.80;99.90
21403;DHT22;10862;51.886;17.078;2023-03-03T14:41:59;0.90;99.90
21403;DHT22;10862;51.886;17.078;2023-03-03T14:44:31;0.90;99.90
21403;DHT22;10862;51.886;17.078;2023-03-03T14:47:04;0.80;99.90
21403;DHT22;10862;51.886;17.078;2023-03-03T14:49:32;0.90;99.90
21403;DHT22;10862;51.886;17.078;2023-03-03T14:52:10;0.90;99.90
21403;DHT22;10862;51.886;17.078;2023-03-03T14:54:44;0.90;99.90
21403;DHT22;10862;51.886;17.078;2023-03-03T14:57:19;0.80;99.90
21403;DHT22;10862;51.886;17.078;2023-03-03T15:05:18;0.80;99.90
21403;DHT22;10862;51.886;17.078;2023-03-03T15:07:47;0.80;99.90
21403;DHT22;10862;51.886;17.078;2023-03-03T15:10:26;0.80;99.90
21403;DHT22;10862;51.886;17.078;2023-03-03T15:12:52;0.80;99.90
21403;DHT22;10862;51.886;17.078;2023-03-03T15:15:21;0.80;99.90
21403;DHT22;10862;51.886;17.078;2023-03-03T15:17:59;0.70;99.90
21403;DHT22;10862;51.886;17.078;2023-03-03T15:23:41;0.70;99.90
21403;DHT22;10862;51.886;17.078;2023-03-03T15:37:31;0.80;99.90
21403;DHT22;10862;51.886;17.078;2023-03-03T15:43:19;0.80;99.90
21403;DHT22;10862;51.886;17.078;2023-03-03T15:45:59;0.80;99.90
21403;DHT22;10862;51.886;17.078;2023-03-03T15:49:03;0.80;99.90
21403;DHT22;10862;51.886;17.078;2023-03-03T16:03:25;0.70;99.90
21403;DHT22;10862;51.886;17.078;2023-03-03T16:05:47;0.70;99.90
21403;DHT22;10862;51.886;17.078;2023-03-03T16:08:21;0.60;99.90
21403;DHT22;10862;51.886;17.078;2023-03-03T16:13:39;0.70;99.90
21403;DHT22;10862;51.886;17.078;2023-03-03T16:28:00;0.70;99.90
21403;DHT22;10862;51.886;17.078;2023-03-03T16:33:35;0.60;99.90
21403;DHT22;10862;51.886;17.078;2023-03-03T16:38:39;0.70;99.90
21403;DHT22;10862;51.886;17.078;2023-03-03T16:41:36;0.60;99.90
21403;DHT22;10862;51.886;17.078;2023-03-03T16:46:44;0.70;99.90
21403;DHT22;10862;51.886;17.078;2023-03-03T16:52:16;0.70;99.90
21403;DHT22;10862;51.886;17.078;2023-03-03T16:55:04;0.70;99.90
21403;DHT22;10862;51.886;17.078;2023-03-03T16:58:54;0.70;99.90
21403;DHT22;10862;51.886;17.078;2023-03-03T17:15:15;0.70;99.90
21403;DHT22;10862;51.886;17.078;2023-03-03T17:17:46;0.70;99.90
21403;DHT22;10862;51.886;17.078;2023-03-03T17:31:59;0.70;99.90
21403;DHT22;10862;51.886;17.078;2023-03-03T17:42:55;0.70;99.90
21403;DHT22;10862;51.886;17.078;2023-03-03T17:45:23;0.70;99.90
21403;DHT22;10862;51.886;17.078;2023-03-03T17:56:02;0.70;99.90
21403;DHT22;10862;51.886;17.078;2023-03-03T18:02:00;0.70;99.90
21403;DHT22;10862;51.886;17.078;2023-03-03T18:04:43;0.70;99.90
21403;DHT22;10862;51.886;17.078;2023-03-03T18:15:49;0.80;99.90
21403;DHT22;10862;51.886;17.078;2023-03-03T18:18:28;0.80;99.90
21403;DHT22;10862;51.886;17.078;2023-03-03T18:23:41;0.80;99.90
21403;DHT22;10862;51.886;17.078;2023-03-03T18:26:36;0.80;99.90
21403;DHT22;10862;51.886;17.078;2023-03-03T18:34:39;0.70;99.90
21403;DHT22;10862;51.886;17.078;2023-03-03T18:48:07;0.80;99.90
21403;DHT22;10862;51.886;17.078;2023-03-03T18:50:42;0.80;99.90
21403;DHT22;10862;51.886;17.078;2023-03-03T18:53:27;0.70;99.90
21403;DHT22;10862;51.886;17.078;2023-03-03T18:55:56;0.70;99.90
21403;DHT22;10862;51.886;17.078;2023-03-03T18:58:42;0.80;99.90
21403;DHT22;10862;51.886;17.078;2023-03-03T19:09:05;0.80;99.90
21403;DHT22;10862;51.886;17.078;2023-03-03T19:11:47;0.80;99.90
21403;DHT22;10862;51.886;17.078;2023-03-03T19:16:44;0.80;99.90
21403;DHT22;10862;51.886;17.078;2023-03-03T19:19:18;0.80;99.90
21403;DHT22;10862;51.886;17.078;2023-03-03T19:21:50;0.80;99.90
21403;DHT22;10862;51.886;17.078;2023-03-03T19:24:27;0.80;99.90
21403;DHT22;10862;51.886;17.078;2023-03-03T19:27:14;0.80;99.90
21403;DHT22;10862;51.886;17.078;2023-03-03T19:29:56;0.80;99.90
21403;DHT22;10862;51.886;17.078;2023-03-03T19:40:33;0.70;99.90
21403;DHT22;10862;51.886;17.078;2023-03-03T19:54:04;0.50;99.90
21403;DHT22;10862;51.886;17.078;2023-03-03T20:04:35;0.60;99.90
21403;DHT22;10862;51.886;17.078;2023-03-03T20:07:37;0.60;99.90
21403;DHT22;10862;51.886;17.078;2023-03-03T20:10:27;0.50;99.90
21403;DHT22;10862;51.886;17.078;2023-03-03T20:16:11;0.50;99.90
21403;DHT22;10862;51.886;17.078;2023-03-03T20:27:08;0.40;99.90
21403;DHT22;10862;51.886;17.078;2023-03-03T20:29:44;0.50;99.90
21403;DHT22;10862;51.886;17.078;2023-03-03T20:37:52;0.50;99.90
21403;DHT22;10862;51.886;17.078;2023-03-03T20:40:41;0.40;99.90
21403;DHT22;10862;51.886;17.078;2023-03-03T20:43:32;0.40;99.90
21403;DHT22;10862;51.886;17.078;2023-03-03T20:48:42;0.40;99.90
21403;DHT22;10862;51.886;17.078;2023-03-03T20:54:23;0.40;99.90
21403;DHT22;10862;51.886;17.078;2023-03-03T21:00:36;0.30;99.90
21403;DHT22;10862;51.886;17.078;2023-03-03T21:03:35;0.30;99.90
21403;DHT22;10862;51.886;17.078;2023-03-03T21:06:03;0.30;99.90
21403;DHT22;10862;51.886;17.078;2023-03-03T21:11:05;0.30;99.90
21403;DHT22;10862;51.886;17.078;2023-03-03T21:13:43;0.30;99.90
21403;DHT22;10862;51.886;17.078;2023-03-03T21:16:35;0.40;99.90
21403;DHT22;10862;51.886;17.078;2023-03-03T21:19:06;0.40;99.90
21403;DHT22;10862;51.886;17.078;2023-03-03T21:21:37;0.40;99.90
21403;DHT22;10862;51.886;17.078;2023-03-03T21:24:03;0.40;99.90
21403;DHT22;10862;51.886;17.078;2023-03-03T21:26:55;0.40;99.90
21403;DHT22;10862;51.886;17.078;2023-03-03T21:29:24;0.40;99.90
21403;DHT22;10862;51.886;17.078;2023-03-03T21:31:52;0.40;99.90
21403;DHT22;10862;51.886;17.078;2023-03-03T21:34:31;0.40;99.90
21403;DHT22;10862;51.886;17.078;2023-03-03T21:36:59;0.40;99.90
21403;DHT22;10862;51.886;17.078;2023-03-03T21:41:59;0.40;99.90
21403;DHT22;10862;51.886;17.078;2023-03-03T21:47:01;0.40;99.90
21403;DHT22;10862;51.886;17.078;2023-03-03T21:49:27;0.50;99.90
21403;DHT22;10862;51.886;17.078;2023-03-03T21:51:54;0.50;99.90
21403;DHT22;10862;51.886;17.078;2023-03-03T21:54:21;0.50;99.90
21403;DHT22;10862;51.886;17.078;2023-03-03T21:56:46;0.60;99.90
21403;DHT22;10862;51.886;17.078;2023-03-03T21:59:15;0.60;99.90
21403;DHT22;10862;51.886;17.078;2023-03-03T22:01:40;0.60;99.90
21403;DHT22;10862;51.886;17.078;2023-03-03T22:04:06;0.60;99.90
21403;DHT22;10862;51.886;17.078;2023-03-03T22:06:32;0.60;99.90
21403;DHT22;10862;51.886;17.078;2023-03-03T22:08:58;0.60;99.90
21403;DHT22;10862;51.886;17.078;2023-03-03T22:11:24;0.60;99.90
21403;DHT22;10862;51.886;17.078;2023-03-03T22:13:49;0.60;99.90
21403;DHT22;10862;51.886;17.078;2023-03-03T22:16:15;0.70;99.90
21403;DHT22;10862;51.886;17.078;2023-03-03T22:18:41;0.70;99.90
21403;DHT22;10862;51.886;17.078;2023-03-03T22:21:07;0.70;99.90
21403;DHT22;10862;51.886;17.078;2023-03-03T22:23:32;0.70;99.90
21403;DHT22;10862;51.886;17.078;2023-03-03T22:25:58;0.70;99.90